sensor_id;sensor_type;location;lat;lon;timestamp;pressure;altitude;pressure_sealevel;temperature;humidity
58955;BME280;45815;52.334;5.024;2024-02-26T00:02:13;100074.22;;;6.90;100.00
58955;BME280;45815;52.334;5.024;2024-02-26T00:04:39;100074.22;;;6.90;100.00
58955;BME280;45815;52.334;5.024;2024-02-26T00:07:05;100075.09;;;6.89;100.00
58955;BME280;45815;52.334;5.024;2024-02-26T00:09:30;100070.78;;;6.91;100.00
58955;BME280;45815;52.334;5.024;2024-02-26T00:11:56;100069.00;;;6.90;100.00
58955;BME280;45815;52.334;5.024;2024-02-26T00:14:21;100077.75;;;6.92;100.00
58955;BME280;45815;52.334;5.024;2024-02-26T00:16:46;100068.19;;;6.93;100.00
58955;BME280;45815;52.334;5.024;2024-02-26T00:19:12;100078.63;;;6.91;100.00
58955;BME280;45815;52.334;5.024;2024-02-26T00:21:40;100082.16;;;6.93;100.00
58955;BME280;45815;52.334;5.024;2024-02-26T00:24:07;100082.97;;;6.92;100.00
58955;BME280;45815;52.334;5.024;2024-02-26T00:26:33;100080.31;;;6.89;100.00
58955;BME280;45815;52.334;5.024;2024-02-26T00:28:58;100079.41;;;6.87;100.00
58955;BME280;45815;52.334;5.024;2024-02-26T00:31:23;100070.44;;;6.74;100.00
58955;BME280;45815;52.334;5.024;2024-02-26T00:33:49;100086.09;;;6.76;100.00
58955;BME280;45815;52.334;5.024;2024-02-26T00:36:14;100083.47;;;6.76;100.00
58955;BME280;45815;52.334;5.024;2024-02-26T00:38:40;100086.97;;;6.75;100.00
58955;BME280;45815;52.334;5.024;2024-02-26T00:41:06;100089.41;;;6.69;100.00
58955;BME280;45815;52.334;5.024;2024-02-26T00:43:31;100094.56;;;6.66;100.00
58955;BME280;45815;52.334;5.024;2024-02-26T00:45:56;100097.06;;;6.61;100.00
58955;BME280;45815;52.334;5.024;2024-02-26T00:48:22;100099.78;;;6.66;100.00
58955;BME280;45815;52.334;5.024;2024-02-26T00:50:47;100109.22;;;6.61;100.00
58955;BME280;45815;52.334;5.024;2024-02-26T00:53:13;100110.06;;;6.60;100.00
58955;BME280;45815;52.334;5.024;2024-02-26T00:55:38;100105.72;;;6.59;100.00
58955;BME280;45815;52.334;5.024;2024-02-26T00:58:04;100109.13;;;6.58;100.00
58955;BME280;45815;52.334;5.024;2024-02-26T01:00:29;100106.47;;;6.54;100.00
58955;BME280;45815;52.334;5.024;2024-02-26T01:02:54;100109.94;;;6.53;100.00
58955;BME280;45815;52.334;5.024;2024-02-26T01:05:20;100111.53;;;6.48;100.00
58955;BME280;45815;52.334;5.024;2024-02-26T01:07:45;100107.22;;;6.49;100.00
58955;BME280;45815;52.334;5.024;2024-02-26T01:10:11;100099.25;;;6.43;100.00
58955;BME280;45815;52.334;5.024;2024-02-26T01:12:36;100109.72;;;6.44;100.00
58955;BME280;45815;52.334;5.024;2024-02-26T01:15:02;100098.38;;;6.42;100.00
58955;BME280;45815;52.334;5.024;2024-02-26T01:17:28;100102.72;;;6.42;100.00
58955;BME280;45815;52.334;5.024;2024-02-26T01:19:53;100113.16;;;6.43;100.00
58955;BME280;45815;52.334;5.024;2024-02-26T01:22:19;100107.06;;;6.43;100.00
58955;BME280;45815;52.334;5.024;2024-02-26T01:24:45;100103.59;;;6.42;100.00
58955;BME280;45815;52.334;5.024;2024-02-26T01:27:10;100105.28;;;6.40;100.00
58955;BME280;45815;52.334;5.024;2024-02-26T01:29:36;100112.22;;;6.41;100.00
58955;BME280;45815;52.334;5.024;2024-02-26T01:32:01;100105.31;;;6.42;100.00
58955;BME280;45815;52.334;5.024;2024-02-26T01:34:28;100114.78;;;6.38;100.00
58955;BME280;45815;52.334;5.024;2024-02-26T01:36:53;100112.22;;;6.40;100.00
58955;BME280;45815;52.334;5.024;2024-02-26T01:39:18;100121.78;;;6.39;100.00
58955;BME280;45815;52.334;5.024;2024-02-26T01:41:44;100118.25;;;6.37;100.00
58955;BME280;45815;52.334;5.024;2024-02-26T01:44:12;100113.84;;;6.34;100.00
58955;BME280;45815;52.334;5.024;2024-02-26T01:46:38;100118.13;;;6.34;100.00
58955;BME280;45815;52.334;5.024;2024-02-26T01:49:03;100118.94;;;6.31;100.00
58955;BME280;45815;52.334;5.024;2024-02-26T01:51:30;100117.22;;;6.32;100.00
58955;BME280;45815;52.334;5.024;2024-02-26T01:53:57;100116.41;;;6.33;100.00
58955;BME280;45815;52.334;5.024;2024-02-26T01:56:23;100109.44;;;6.33;100.00
58955;BME280;45815;52.334;5.024;2024-02-26T01:58:53;100112.88;;;6.31;100.00
58955;BME280;45815;52.334;5.024;2024-02-26T02:01:22;100112.81;;;6.28;100.00
58955;BME280;45815;52.334;5.024;2024-02-26T02:03:51;100112.81;;;6.28;100.00
58955;BME280;45815;52.334;5.024;2024-02-26T02:06:16;100111.06;;;6.28;100.00
58955;BME280;45815;52.334;5.024;2024-02-26T02:08:42;100112.88;;;6.31;100.00
58955;BME280;45815;52.334;5.024;2024-02-26T02:11:08;100113.78;;;6.33;100.00
58955;BME280;45815;52.334;5.024;2024-02-26T02:13:37;100117.31;;;6.35;100.00
58955;BME280;45815;52.334;5.024;2024-02-26T02:16:02;100111.28;;;6.38;100.00
58955;BME280;45815;52.334;5.024;2024-02-26T02:18:28;100127.84;;;6.40;100.00
58955;BME280;45815;52.334;5.024;2024-02-26T02:20:53;100126.13;;;6.40;100.00
58955;BME280;45815;52.334;5.024;2024-02-26T02:23:19;100136.53;;;6.40;100.00
58955;BME280;45815;52.334;5.024;2024-02-26T02:25:44;100138.28;;;6.40;100.00
58955;BME280;45815;52.334;5.024;2024-02-26T02:28:10;100151.25;;;6.38;100.00
58955;BME280;45815;52.334;5.024;2024-02-26T02:30:35;100149.59;;;6.40;100.00
58955;BME280;45815;52.334;5.024;2024-02-26T02:33:01;100147.91;;;6.42;100.00
58955;BME280;45815;52.334;5.024;2024-02-26T02:35:26;100151.44;;;6.44;100.00
58955;BME280;45815;52.334;5.024;2024-02-26T02:37:52;100159.25;;;6.44;100.00
58955;BME280;45815;52.334;5.024;2024-02-26T02:40:17;100148.78;;;6.43;100.00
58955;BME280;45815;52.334;5.024;2024-02-26T02:42:43;100152.34;;;6.46;100.00
58955;BME280;45815;52.334;5.024;2024-02-26T02:45:09;100143.72;;;6.49;100.00
58955;BME280;45815;52.334;5.024;2024-02-26T02:47:37;100157.69;;;6.51;100.00
58955;BME280;45815;52.334;5.024;2024-02-26T02:50:03;100155.09;;;6.52;100.00
58955;BME280;45815;52.334;5.024;2024-02-26T02:52:29;100156.81;;;6.52;100.00
58955;BME280;45815;52.334;5.024;2024-02-26T02:54:54;100149.88;;;6.52;100.00
58955;BME280;45815;52.334;5.024;2024-02-26T02:57:20;100153.47;;;6.58;100.00
58955;BME280;45815;52.334;5.024;2024-02-26T02:59:46;100153.56;;;6.61;100.00
58955;BME280;45815;52.334;5.024;2024-02-26T03:02:11;100155.25;;;6.60;100.00
58955;BME280;45815;52.334;5.024;2024-02-26T03:04:37;100169.28;;;6.64;100.00
58955;BME280;45815;52.334;5.024;2024-02-26T03:07:02;100163.25;;;6.66;100.00
58955;BME280;45815;52.334;5.024;2024-02-26T03:09:28;100166.72;;;6.67;100.00
58955;BME280;45815;52.334;5.024;2024-02-26T03:11:53;100166.72;;;6.67;100.00
58955;BME280;45815;52.334;5.024;2024-02-26T03:14:18;100170.25;;;6.67;100.00
58955;BME280;45815;52.334;5.024;2024-02-26T03:16:44;100174.59;;;6.68;100.00
58955;BME280;45815;52.334;5.024;2024-02-26T03:19:09;100167.59;;;6.66;100.00
58955;BME280;45815;52.334;5.024;2024-02-26T03:21:35;100174.56;;;6.67;100.00
58955;BME280;45815;52.334;5.024;2024-02-26T03:24:00;100176.22;;;6.65;100.00
58955;BME280;45815;52.334;5.024;2024-02-26T03:26:25;100179.69;;;6.64;100.00
58955;BME280;45815;52.334;5.024;2024-02-26T03:28:51;100186.66;;;6.65;100.00
58955;BME280;45815;52.334;5.024;2024-02-26T03:31:16;100191.88;;;6.65;100.00
58955;BME280;45815;52.334;5.024;2024-02-26T03:33:41;100197.09;;;6.65;100.00
58955;BME280;45815;52.334;5.024;2024-02-26T03:36:07;100194.38;;;6.60;100.00
58955;BME280;45815;52.334;5.024;2024-02-26T03:38:32;100200.56;;;6.64;100.00
58955;BME280;45815;52.334;5.024;2024-02-26T03:40:58;100198.81;;;6.63;100.00
58955;BME280;45815;52.334;5.024;2024-02-26T03:43:23;100199.69;;;6.65;100.00
58955;BME280;45815;52.334;5.024;2024-02-26T03:45:48;100201.50;;;6.66;100.00
58955;BME280;45815;52.334;5.024;2024-02-26T03:48:14;100201.53;;;6.67;100.00
58955;BME280;45815;52.334;5.024;2024-02-26T03:50:39;100191.75;;;6.59;100.00
58955;BME280;45815;52.334;5.024;2024-02-26T03:53:05;100214.53;;;6.66;100.00
58955;BME280;45815;52.334;5.024;2024-02-26T03:55:30;100209.31;;;6.66;100.00
58955;BME280;45815;52.334;5.024;2024-02-26T03:57:55;100220.56;;;6.65;100.00
58955;BME280;45815;52.334;5.024;2024-02-26T04:00:21;100216.28;;;6.67;100.00
58955;BME280;45815;52.334;5.024;2024-02-26T04:02:47;100212.53;;;6.55;100.00
58955;BME280;45815;52.334;5.024;2024-02-26T04:05:13;100213.53;;;6.61;100.00
58955;BME280;45815;52.334;5.024;2024-02-26T04:07:42;100224.09;;;6.65;100.00
58955;BME280;45815;52.334;5.024;2024-02-26T04:10:11;100231.78;;;6.61;100.00
58955;BME280;45815;52.334;5.024;2024-02-26T04:12:40;100237.06;;;6.64;100.00
58955;BME280;45815;52.334;5.024;2024-02-26T04:15:09;100225.66;;;6.59;100.00
58955;BME280;45815;52.334;5.024;2024-02-26T04:17:36;100230.09;;;6.63;100.00
58955;BME280;45815;52.334;5.024;2024-02-26T04:20:02;100243.97;;;6.62;100.00
58955;BME280;45815;52.334;5.024;2024-02-26T04:22:28;100241.25;;;6.57;100.00
58955;BME280;45815;52.334;5.024;2024-02-26T04:24:53;100240.38;;;6.57;100.00
58955;BME280;45815;52.334;5.024;2024-02-26T04:27:18;100243.84;;;6.55;100.00
58955;BME280;45815;52.334;5.024;2024-02-26T04:29:44;100247.34;;;6.58;100.00
58955;BME280;45815;52.334;5.024;2024-02-26T04:32:09;100248.25;;;6.58;100.00
58955;BME280;45815;52.334;5.024;2024-02-26T04:34:34;100255.25;;;6.61;100.00
58955;BME280;45815;52.334;5.024;2024-02-26T04:37:00;100250.97;;;6.63;100.00
58955;BME280;45815;52.334;5.024;2024-02-26T04:39:25;100250.88;;;6.60;100.00
58955;BME280;45815;52.334;5.024;2024-02-26T04:41:51;100255.13;;;6.56;100.00
58955;BME280;45815;52.334;5.024;2024-02-26T04:44:16;100262.09;;;6.57;100.00
58955;BME280;45815;52.334;5.024;2024-02-26T04:46:42;100264.81;;;6.62;100.00
58955;BME280;45815;52.334;5.024;2024-02-26T04:49:07;100273.53;;;6.62;100.00
58955;BME280;45815;52.334;5.024;2024-02-26T04:51:33;100266.63;;;6.64;100.00
58955;BME280;45815;52.334;5.024;2024-02-26T04:53:58;100272.69;;;6.63;100.00
58955;BME280;45815;52.334;5.024;2024-02-26T04:56:24;100271.03;;;6.67;100.00
58955;BME280;45815;52.334;5.024;2024-02-26T04:58:50;100277.94;;;6.65;100.00
58955;BME280;45815;52.334;5.024;2024-02-26T05:01:16;100272.72;;;6.65;100.00
58955;BME280;45815;52.334;5.024;2024-02-26T05:03:42;100274.50;;;6.66;100.00
58955;BME280;45815;52.334;5.024;2024-02-26T05:06:08;100256.00;;;6.57;100.00
58955;BME280;45815;52.334;5.024;2024-02-26T05:08:34;100274.56;;;6.69;100.00
58955;BME280;45815;52.334;5.024;2024-02-26T05:11:01;100272.84;;;6.69;100.00
58955;BME280;45815;52.334;5.024;2024-02-26T05:13:28;100269.34;;;6.69;100.00
58955;BME280;45815;52.334;5.024;2024-02-26T05:15:54;100266.44;;;6.57;100.00
58955;BME280;45815;52.334;5.024;2024-02-26T05:18:19;100277.03;;;6.63;100.00
58955;BME280;45815;52.334;5.024;2024-02-26T05:20:44;100281.34;;;6.62;100.00
58955;BME280;45815;52.334;5.024;2024-02-26T05:23:10;100284.88;;;6.64;100.00
58955;BME280;45815;52.334;5.024;2024-02-26T05:25:36;100289.28;;;6.67;100.00
58955;BME280;45815;52.334;5.024;2024-02-26T05:28:01;100292.69;;;6.63;100.00
58955;BME280;45815;52.334;5.024;2024-02-26T05:30:26;100296.19;;;6.65;100.00
58955;BME280;45815;52.334;5.024;2024-02-26T05:32:55;100303.13;;;6.63;100.00
58955;BME280;45815;52.334;5.024;2024-02-26T05:35:20;100299.59;;;6.62;100.00
58955;BME280;45815;52.334;5.024;2024-02-26T05:37:45;100313.63;;;6.66;100.00
58955;BME280;45815;52.334;5.024;2024-02-26T05:40:11;100309.22;;;6.65;100.00
58955;BME280;45815;52.334;5.024;2024-02-26T05:42:37;100311.06;;;6.67;100.00
58955;BME280;45815;52.334;5.024;2024-02-26T05:45:02;100317.28;;;6.74;100.00
58955;BME280;45815;52.334;5.024;2024-02-26T05:47:32;100312.06;;;6.74;100.00
58955;BME280;45815;52.334;5.024;2024-02-26T05:49:58;100326.91;;;6.76;100.00
58955;BME280;45815;52.334;5.024;2024-02-26T05:52:26;100315.47;;;6.70;100.00
58955;BME280;45815;52.334;5.024;2024-02-26T05:54:51;100331.13;;;6.70;100.00
58955;BME280;45815;52.334;5.024;2024-02-26T05:57:16;100332.13;;;6.76;100.00
58955;BME280;45815;52.334;5.024;2024-02-26T05:59:44;100328.66;;;6.76;100.00
58955;BME280;45815;52.334;5.024;2024-02-26T06:02:09;100329.50;;;6.75;100.00
58955;BME280;45815;52.334;5.024;2024-02-26T06:04:34;100346.09;;;6.77;100.00
58955;BME280;45815;52.334;5.024;2024-02-26T06:07:00;100338.28;;;6.79;100.00
58955;BME280;45815;52.334;5.024;2024-02-26T06:09:25;100341.00;;;6.83;100.00
58955;BME280;45815;52.334;5.024;2024-02-26T06:11:51;100353.81;;;6.74;100.00
58955;BME280;45815;52.334;5.024;2024-02-26T06:14:16;100353.94;;;6.79;100.00
58955;BME280;45815;52.334;5.024;2024-02-26T06:16:44;100358.22;;;6.76;100.00
58955;BME280;45815;52.334;5.024;2024-02-26T06:19:09;100360.06;;;6.79;100.00
58955;BME280;45815;52.334;5.024;2024-02-26T06:21:35;100363.44;;;6.76;100.00
58955;BME280;45815;52.334;5.024;2024-02-26T06:24:01;100359.13;;;6.77;100.00
58955;BME280;45815;52.334;5.024;2024-02-26T06:26:26;100372.13;;;6.75;100.00
58955;BME280;45815;52.334;5.024;2024-02-26T06:28:54;100382.59;;;6.77;100.00
58955;BME280;45815;52.334;5.024;2024-02-26T06:31:21;100388.75;;;6.79;100.00
58955;BME280;45815;52.334;5.024;2024-02-26T06:33:48;100381.63;;;6.73;100.00
58955;BME280;45815;52.334;5.024;2024-02-26T06:36:13;100384.22;;;6.73;100.00
58955;BME280;45815;52.334;5.024;2024-02-26T06:38:39;100380.88;;;6.78;100.00
58955;BME280;45815;52.334;5.024;2024-02-26T06:41:04;100386.97;;;6.78;100.00
58955;BME280;45815;52.334;5.024;2024-02-26T06:43:29;100390.31;;;6.74;100.00
58955;BME280;45815;52.334;5.024;2024-02-26T06:45:55;100394.66;;;6.72;100.00
58955;BME280;45815;52.334;5.024;2024-02-26T06:48:22;100390.44;;;6.79;100.00
58955;BME280;45815;52.334;5.024;2024-02-26T06:50:48;100407.84;;;6.78;100.00
58955;BME280;45815;52.334;5.024;2024-02-26T06:53:13;100379.75;;;6.68;100.00
58955;BME280;45815;52.334;5.024;2024-02-26T06:55:38;100399.94;;;6.76;100.00
58955;BME280;45815;52.334;5.024;2024-02-26T06:58:06;100413.06;;;6.78;100.00
58955;BME280;45815;52.334;5.024;2024-02-26T07:00:31;100413.00;;;6.76;100.00
58955;BME280;45815;52.334;5.024;2024-02-26T07:02:56;100416.50;;;6.77;100.00
58955;BME280;45815;52.334;5.024;2024-02-26T07:05:22;100412.09;;;6.74;100.00
58955;BME280;45815;52.334;5.024;2024-02-26T07:07:47;100432.25;;;6.80;100.00
58955;BME280;45815;52.334;5.024;2024-02-26T07:10:12;100433.16;;;6.82;100.00
58955;BME280;45815;52.334;5.024;2024-02-26T07:12:38;100435.84;;;6.85;100.00
58955;BME280;45815;52.334;5.024;2024-02-26T07:15:04;100419.00;;;6.74;100.00
58955;BME280;45815;52.334;5.024;2024-02-26T07:17:32;100444.44;;;6.81;100.00
58955;BME280;45815;52.334;5.024;2024-02-26T07:19:59;100448.75;;;6.81;100.00
58955;BME280;45815;52.334;5.024;2024-02-26T07:22:24;100459.84;;;6.72;100.00
58955;BME280;45815;52.334;5.024;2024-02-26T07:24:52;100458.13;;;6.72;100.00
58955;BME280;45815;52.334;5.024;2024-02-26T07:27:18;100455.50;;;6.72;100.00
58955;BME280;45815;52.334;5.024;2024-02-26T07:29:43;100464.13;;;6.70;100.00
58955;BME280;45815;52.334;5.024;2024-02-26T07:32:09;100459.66;;;6.66;100.00
58955;BME280;45815;52.334;5.024;2024-02-26T07:34:35;100460.47;;;6.65;100.00
58955;BME280;45815;52.334;5.024;2024-02-26T07:37:03;100467.56;;;6.69;100.00
58955;BME280;45815;52.334;5.024;2024-02-26T07:39:28;100467.47;;;6.66;100.00
58955;BME280;45815;52.334;5.024;2024-02-26T07:41:53;100471.63;;;6.59;100.00
58955;BME280;45815;52.334;5.024;2024-02-26T07:44:19;100475.91;;;6.57;100.00
58955;BME280;45815;52.334;5.024;2024-02-26T07:46:44;100468.97;;;6.58;100.00
58955;BME280;45815;52.334;5.024;2024-02-26T07:49:10;100474.28;;;6.61;100.00
58955;BME280;45815;52.334;5.024;2024-02-26T07:51:35;100490.03;;;6.64;100.00
58955;BME280;45815;52.334;5.024;2024-02-26T07:54:00;100489.88;;;6.59;100.00
58955;BME280;45815;52.334;5.024;2024-02-26T07:56:26;100493.34;;;6.58;100.00
58955;BME280;45815;52.334;5.024;2024-02-26T07:58:53;100502.97;;;6.61;100.00
58955;BME280;45815;52.334;5.024;2024-02-26T08:01:18;100496.97;;;6.63;100.00
58955;BME280;45815;52.334;5.024;2024-02-26T08:03:43;100503.72;;;6.57;100.00
58955;BME280;45815;52.334;5.024;2024-02-26T08:06:09;100497.91;;;6.65;100.00
58955;BME280;45815;52.334;5.024;2024-02-26T08:08:34;100511.81;;;6.66;100.00
58955;BME280;45815;52.334;5.024;2024-02-26T08:10:59;100513.50;;;6.64;100.00
58955;BME280;45815;52.334;5.024;2024-02-26T08:13:25;100520.56;;;6.68;100.00
58955;BME280;45815;52.334;5.024;2024-02-26T08:15:51;100512.88;;;6.72;100.00
58955;BME280;45815;52.334;5.024;2024-02-26T08:18:17;100512.16;;;6.78;100.00
58955;BME280;45815;52.334;5.024;2024-02-26T08:20:43;100512.09;;;6.75;100.00
58955;BME280;45815;52.334;5.024;2024-02-26T08:23:08;100516.66;;;6.82;100.00
58955;BME280;45815;52.334;5.024;2024-02-26T08:25:34;100522.59;;;6.78;100.00
58955;BME280;45815;52.334;5.024;2024-02-26T08:27:59;100536.38;;;6.74;100.00
58955;BME280;45815;52.334;5.024;2024-02-26T08:30:24;100532.16;;;6.78;100.00
58955;BME280;45815;52.334;5.024;2024-02-26T08:32:50;100533.97;;;6.80;100.00
58955;BME280;45815;52.334;5.024;2024-02-26T08:35:16;100530.22;;;6.70;100.00
58955;BME280;45815;52.334;5.024;2024-02-26T08:37:44;100538.25;;;6.78;100.00
58955;BME280;45815;52.334;5.024;2024-02-26T08:40:10;100540.03;;;6.79;100.00
58955;BME280;45815;52.334;5.024;2024-02-26T08:42:35;100542.59;;;6.78;100.00
58955;BME280;45815;52.334;5.024;2024-02-26T08:45:02;100539.94;;;6.76;100.00
58955;BME280;45815;52.334;5.024;2024-02-26T08:47:28;100553.97;;;6.81;100.00
58955;BME280;45815;52.334;5.024;2024-02-26T08:49:53;100542.81;;;6.85;100.00
58955;BME280;45815;52.334;5.024;2024-02-26T08:52:19;100545.34;;;6.82;100.00
58955;BME280;45815;52.334;5.024;2024-02-26T08:54:44;100552.38;;;6.85;100.00
58955;BME280;45815;52.334;5.024;2024-02-26T08:57:10;100548.03;;;6.85;100.00
58955;BME280;45815;52.334;5.024;2024-02-26T08:59:35;100558.69;;;6.93;100.00
58955;BME280;45815;52.334;5.024;2024-02-26T09:02:01;100561.41;;;6.97;100.00
58955;BME280;45815;52.334;5.024;2024-02-26T09:04:26;100564.69;;;6.90;100.00
58955;BME280;45815;52.334;5.024;2024-02-26T09:06:52;100559.41;;;6.87;100.00
58955;BME280;45815;52.334;5.024;2024-02-26T09:09:18;100575.91;;;6.86;100.00
58955;BME280;45815;52.334;5.024;2024-02-26T09:11:43;100578.31;;;6.80;100.00
58955;BME280;45815;52.334;5.024;2024-02-26T09:14:09;100574.97;;;6.84;100.00
58955;BME280;45815;52.334;5.024;2024-02-26T09:16:34;100569.81;;;6.87;100.00
58955;BME280;45815;52.334;5.024;2024-02-26T09:18:59;100582.81;;;6.86;100.00
58955;BME280;45815;52.334;5.024;2024-02-26T09:21:25;100588.03;;;6.86;100.00
58955;BME280;45815;52.334;5.024;2024-02-26T09:23:52;100583.72;;;6.86;100.00
58955;BME280;45815;52.334;5.024;2024-02-26T09:26:17;100585.56;;;6.90;100.00
58955;BME280;45815;52.334;5.024;2024-02-26T09:28:43;100589.88;;;6.88;100.00
58955;BME280;45815;52.334;5.024;2024-02-26T09:31:08;100596.91;;;6.91;100.00
58955;BME280;45815;52.334;5.024;2024-02-26T09:33:34;100604.69;;;6.89;100.00
58955;BME280;45815;52.334;5.024;2024-02-26T09:35:59;100603.94;;;6.93;100.00
58955;BME280;45815;52.334;5.024;2024-02-26T09:38:28;100597.94;;;6.97;100.00
58955;BME280;45815;52.334;5.024;2024-02-26T09:40:56;100609.31;;;7.00;100.00
58955;BME280;45815;52.334;5.024;2024-02-26T09:43:22;100612.03;;;7.03;100.00
58955;BME280;45815;52.334;5.024;2024-02-26T09:45:54;100625.97;;;7.03;100.00
58955;BME280;45815;52.334;5.024;2024-02-26T09:48:19;100606.78;;;7.01;100.00
58955;BME280;45815;52.334;5.024;2024-02-26T09:50:46;100624.25;;;7.04;100.00
58955;BME280;45815;52.334;5.024;2024-02-26T09:53:12;100625.09;;;7.03;100.00
58955;BME280;45815;52.334;5.024;2024-02-26T09:55:39;100631.41;;;7.11;100.00
58955;BME280;45815;52.334;5.024;2024-02-26T09:58:05;100627.97;;;7.12;100.00
58955;BME280;45815;52.334;5.024;2024-02-26T10:00:31;100639.06;;;7.05;100.00
58955;BME280;45815;52.334;5.024;2024-02-26T10:03:04;100638.94;;;7.00;100.00
58955;BME280;45815;52.334;5.024;2024-02-26T10:05:31;100650.34;;;7.04;100.00
58955;BME280;45815;52.334;5.024;2024-02-26T10:07:57;100660.69;;;7.01;100.00
58955;BME280;45815;52.334;5.024;2024-02-26T10:10:23;100653.69;;;7.00;100.00
58955;BME280;45815;52.334;5.024;2024-02-26T10:12:49;100657.22;;;7.02;100.00
58955;BME280;45815;52.334;5.024;2024-02-26T10:15:15;100669.47;;;7.04;100.00
58955;BME280;45815;52.334;5.024;2024-02-26T10:17:41;100673.81;;;7.04;100.00
58955;BME280;45815;52.334;5.024;2024-02-26T10:20:13;100669.47;;;7.03;100.00
58955;BME280;45815;52.334;5.024;2024-02-26T10:22:43;100681.75;;;7.07;100.00
58955;BME280;45815;52.334;5.024;2024-02-26T10:25:09;100683.44;;;7.05;100.00
58955;BME280;45815;52.334;5.024;2024-02-26T10:27:35;100682.44;;;7.01;100.00
58955;BME280;45815;52.334;5.024;2024-02-26T10:30:15;100687.59;;;7.00;100.00
58955;BME280;45815;52.334;5.024;2024-02-26T10:32:40;100698.03;;;6.98;100.00
58955;BME280;45815;52.334;5.024;2024-02-26T10:35:08;100681.06;;;6.85;100.00
58955;BME280;45815;52.334;5.024;2024-02-26T10:37:33;100698.03;;;6.98;100.00
58955;BME280;45815;52.334;5.024;2024-02-26T10:39:59;100701.31;;;6.92;100.00
58955;BME280;45815;52.334;5.024;2024-02-26T10:42:25;100701.28;;;6.91;100.00
58955;BME280;45815;52.334;5.024;2024-02-26T10:44:51;100701.22;;;6.89;100.00
58955;BME280;45815;52.334;5.024;2024-02-26T10:47:16;100709.97;;;6.91;100.00
58955;BME280;45815;52.334;5.024;2024-02-26T10:49:46;100698.59;;;6.89;100.00
58955;BME280;45815;52.334;5.024;2024-02-26T10:52:14;100718.91;;;6.98;100.00
58955;BME280;45815;52.334;5.024;2024-02-26T10:54:41;100722.22;;;6.94;100.00
58955;BME280;45815;52.334;5.024;2024-02-26T10:57:09;100736.09;;;6.93;100.00
58955;BME280;45815;52.334;5.024;2024-02-26T10:59:35;100737.09;;;6.96;100.00
58955;BME280;45815;52.334;5.024;2024-02-26T11:02:02;100745.78;;;6.95;100.00
58955;BME280;45815;52.334;5.024;2024-02-26T11:04:29;100749.16;;;6.93;100.00
58955;BME280;45815;52.334;5.024;2024-02-26T11:06:57;100747.38;;;6.92;100.00
58955;BME280;45815;52.334;5.024;2024-02-26T11:09:23;100750.88;;;6.92;100.00
58955;BME280;45815;52.334;5.024;2024-02-26T11:11:50;100758.69;;;6.92;100.00
58955;BME280;45815;52.334;5.024;2024-02-26T11:14:20;100752.66;;;6.93;100.00
58955;BME280;45815;52.334;5.024;2024-02-26T11:16:47;100753.50;;;6.92;100.00
58955;BME280;45815;52.334;5.024;2024-02-26T11:19:13;100749.75;;;6.84;100.00
58955;BME280;45815;52.334;5.024;2024-02-26T11:21:39;100767.47;;;6.94;100.00
58955;BME280;45815;52.334;5.024;2024-02-26T11:24:15;100763.03;;;6.92;100.00
58955;BME280;45815;52.334;5.024;2024-02-26T11:26:50;100764.94;;;6.96;100.00
58955;BME280;45815;52.334;5.024;2024-02-26T11:29:20;100770.16;;;6.97;100.00
58955;BME280;45815;52.334;5.024;2024-02-26T11:31:46;100770.31;;;7.02;100.00
58955;BME280;45815;52.334;5.024;2024-02-26T11:34:12;100774.81;;;7.06;100.00
58955;BME280;45815;52.334;5.024;2024-02-26T11:36:38;100773.13;;;7.08;100.00
58955;BME280;45815;52.334;5.024;2024-02-26T11:39:04;100782.00;;;7.13;100.00
58955;BME280;45815;52.334;5.024;2024-02-26T11:41:31;100783.00;;;7.17;100.00
58955;BME280;45815;52.334;5.024;2024-02-26T11:44:01;100768.00;;;7.11;100.00
58955;BME280;45815;52.334;5.024;2024-02-26T11:46:41;100782.13;;;7.18;100.00
58955;BME280;45815;52.334;5.024;2024-02-26T11:51:56;100790.19;;;7.24;100.00
58955;BME280;45815;52.334;5.024;2024-02-26T11:57:03;100789.75;;;7.37;100.00
58955;BME280;45815;52.334;5.024;2024-02-26T11:59:38;100789.75;;;7.37;100.00
58955;BME280;45815;52.334;5.024;2024-02-26T12:02:03;100793.31;;;7.41;100.00
58955;BME280;45815;52.334;5.024;2024-02-26T12:04:30;100787.44;;;7.48;100.00
58955;BME280;45815;52.334;5.024;2024-02-26T12:06:57;100784.88;;;7.50;100.00
58955;BME280;45815;52.334;5.024;2024-02-26T12:09:38;100797.97;;;7.51;100.00
58955;BME280;45815;52.334;5.024;2024-02-26T12:12:08;100786.78;;;7.55;100.00
58955;BME280;45815;52.334;5.024;2024-02-26T12:14:40;100800.84;;;7.60;100.00
58955;BME280;45815;52.334;5.024;2024-02-26T12:17:20;100805.13;;;7.57;100.00
58955;BME280;45815;52.334;5.024;2024-02-26T12:19:46;100799.81;;;7.54;100.00
58955;BME280;45815;52.334;5.024;2024-02-26T12:22:15;100812.22;;;7.61;100.00
58955;BME280;45815;52.334;5.024;2024-02-26T12:24:41;100811.38;;;7.62;100.00
58955;BME280;45815;52.334;5.024;2024-02-26T12:27:06;100817.59;;;7.66;100.00
58955;BME280;45815;52.334;5.024;2024-02-26T12:29:32;100815.13;;;7.70;100.00
58955;BME280;45815;52.334;5.024;2024-02-26T12:31:57;100821.34;;;7.75;100.00
58955;BME280;45815;52.334;5.024;2024-02-26T12:34:23;100817.94;;;7.78;100.00
58955;BME280;45815;52.334;5.024;2024-02-26T12:36:49;100831.97;;;7.81;100.00
58955;BME280;45815;52.334;5.024;2024-02-26T12:39:14;100831.97;;;7.81;100.00
58955;BME280;45815;52.334;5.024;2024-02-26T12:41:40;100826.75;;;7.81;100.00
58955;BME280;45815;52.334;5.024;2024-02-26T12:44:05;100815.06;;;7.69;100.00
58955;BME280;45815;52.334;5.024;2024-02-26T12:46:32;100836.03;;;7.72;100.00
58955;BME280;45815;52.334;5.024;2024-02-26T12:48:58;100849.97;;;7.71;100.00
58955;BME280;45815;52.334;5.024;2024-02-26T12:51:25;100841.88;;;7.63;100.00